CheckWX is a tool to help pilots better visualize weather data.  It is not intended as a substitute for an official pre-flight weather briefing.

12:31:37 UTC

KRAS METAR
Mustang Beach Airport
Port Aransas, Texas, USA
Current

17 mins ago

KRAS 221215Z AUTO 02011KT 2 1/2SM BR OVC002 13/13 A2992 RMK AO2 T01310130
Observed
Feb-22 @ 12:15 UTC
Wind
  • 020° at 11 KTS
Visibility
2 1/2 SM
Flight Rules
LIFR
Conditions
Mist
Cloud Levels
  • Overcast at 200' AGL
Temperature
13°C / 55°F
Dewpoint
13°C / 55°F
Humidity
100%
Altimeter
29.92" Hg
Pressure
1013.22 hPa
Previous

37 mins ago

KRAS 221155Z AUTO 02013KT 2SM BR OVC002 13/13 A2991 RMK AO2 T01310130 10145 20131
Observed
Feb-22 @ 11:55 UTC
Wind
  • 020° at 13 KTS
Visibility
2 SM
Flight Rules
LIFR
Conditions
Mist
Cloud Levels
  • Overcast at 200' AGL
Temperature
13°C / 55°F
Dewpoint
13°C / 55°F
Humidity
100%
Altimeter
29.91" Hg
Pressure
1012.92 hPa
Previous

57 mins ago

KRAS 221135Z AUTO 02013KT 1 1/4SM BR OVC002 13/13 A2991 RMK AO2 T01320131
Observed
Feb-22 @ 11:35 UTC
Wind
  • 020° at 13 KTS
Visibility
1 1/4 SM
Flight Rules
LIFR
Conditions
Mist
Cloud Levels
  • Overcast at 200' AGL
Temperature
13°C / 55°F
Dewpoint
13°C / 55°F
Humidity
100%
Altimeter
29.91" Hg
Pressure
1012.92 hPa